Warrington, United Kingdom
Current Conditions -  °F | °C
As of 10:20 AM on Monday 22 Dec 2014 (Local Time) from EGGP Reporting Station
Broken Clouds Broken Clouds  
Wind Chill: 12°   Ceiling: 2200
Heat Index: 12°   Visibility: 6mi
Dew Point: 10°   Wind: 17mph
Humidity: 88%   Direction: 230°SW
Pressure: 29.88"   Gusts: NA
Location:  53.39°N, 2.59°W
Report Text: EGGP 221020Z 23015KT 9999 BKN022 12/10 Q1012
Loading
Personal Weather Stations






























Interactive Weather Map New forecast layout! Learn more

10-Day Weather Forecast

Advertisements
Track Severe Weather on mobile